Time;durP1;ratioP1;P1;durP2;ratioP2;P2;SDS_P1;SDS_P2;PMS_P1;PMS_P2;Temp;Humidity;BMP_temperature;BMP_pressure;BME280_temperature;BME280_humidity;BME280_pressure;Samples;Min_cycle;Max_cycle;Signal;HPM_P1;HPM_P2
2021/09/27 04:16:55;;;;;;;55.60;20.77;;;;;;;13.78;100.00;98963.84;5601271;23;20136;-72
2021/09/27 04:19:37;;;;;;;47.05;19.77;;;;;;;13.77;100.00;98966.47;5012154;28;20038;-73
2021/09/27 04:22:29;;;;;;;56.65;21.63;;;;;;;13.75;100.00;98966.53;5011983;28;20034;-73
2021/09/27 04:25:15;;;;;;;34.30;20.27;;;;;;;13.74;100.00;98977.00;5012332;28;20029;-71
2021/09/27 04:28:02;;;;;;;45.47;21.13;;;;;;;13.74;100.00;98971.78;4988716;28;20022;-71
2021/09/27 04:31:06;;;;;;;30.67;21.30;;;;;;;13.75;100.00;98968.28;4984481;28;20026;-71
2021/09/27 04:33:46;;;;;;;30.23;21.15;;;;;;;13.78;100.00;98962.97;4975170;28;20023;-71
2021/09/27 04:36:25;;;;;;;30.65;21.08;;;;;;;13.89;100.00;98966.13;4985485;28;20650;-71
2021/09/27 04:38:56;;;;;;;31.90;21.17;;;;;;;13.87;100.00;98957.50;4976962;28;20031;-73
2021/09/27 04:41:46;;;;;;;30.42;20.85;;;;;;;13.81;100.00;98952.47;4983778;28;20319;-73
2021/09/27 04:44:47;;;;;;;30.70;19.88;;;;;;;13.83;100.00;98950.69;4981936;28;20027;-71
2021/09/27 04:47:31;;;;;;;39.45;20.75;;;;;;;13.86;100.00;98954.03;4980248;28;20034;-71
2021/09/27 04:50:10;;;;;;;33.05;20.80;;;;;;;13.83;100.00;98948.09;4984458;28;20023;-72
2021/09/27 04:52:59;;;;;;;32.65;20.95;;;;;;;13.77;100.00;98951.69;4984993;28;20026;-71
2021/09/27 04:55:38;;;;;;;71.82;21.40;;;;;;;13.73;100.00;98949.22;4977541;28;20026;-71
2021/09/27 04:58:25;;;;;;;44.50;23.65;;;;;;;13.75;100.00;98944.84;4984995;28;20034;-71
2021/09/27 05:01:33;;;;;;;42.20;20.33;;;;;;;13.72;100.00;98947.50;4979839;28;20018;-71
2021/09/27 05:04:04;;;;;;;32.35;20.33;;;;;;;13.79;100.00;98959.47;4985237;28;20023;-71
2021/09/27 05:07:11;;;;;;;40.47;21.20;;;;;;;13.72;100.00;98958.78;4977711;28;20027;-71
2021/09/27 05:10:04;;;;;;;38.63;21.02;;;;;;;13.77;100.00;98958.66;4979969;28;20142;-73
2021/09/27 05:13:12;;;;;;;60.20;22.60;;;;;;;13.70;100.00;98957.97;4983228;28;20483;-72
2021/09/27 05:16:02;;;;;;;32.90;21.45;;;;;;;13.70;100.00;98959.75;4982482;28;20553;-72
2021/09/27 05:19:01;;;;;;;30.25;21.35;;;;;;;13.69;100.00;98964.09;4983344;28;20086;-73
2021/09/27 05:21:55;;;;;;;111.32;23.50;;;;;;;13.57;100.00;98964.41;4970196;28;20033;-73
2021/09/27 05:25:06;;;;;;;31.30;21.33;;;;;;;13.60;100.00;98967.78;4992549;28;20022;-73
2021/09/27 05:28:08;;;;;;;28.67;21.45;;;;;;;13.70;100.00;98970.16;4965391;28;20035;-73
2021/09/27 05:30:51;;;;;;;42.88;19.63;;;;;;;13.70;100.00;98977.97;4988776;28;20105;-73
2021/09/27 05:33:33;;;;;;;75.40;21.33;;;;;;;13.73;100.00;98978.75;4979725;28;20033;-73
2021/09/27 05:36:27;;;;;;;139.50;22.02;;;;;;;13.75;100.00;98983.91;4985585;28;20019;-73
2021/09/27 05:39:51;;;;;;;61.78;19.90;;;;;;;13.73;100.00;98990.88;4956659;28;20057;-73
2021/09/27 05:42:38;;;;;;;190.43;21.27;;;;;;;13.57;100.00;98986.09;4953028;29;20023;-73
2021/09/27 05:45:39;;;;;;;98.03;19.50;;;;;;;13.49;100.00;98982.88;4987656;28;20054;-73
2021/09/27 05:48:26;;;;;;;136.57;20.67;;;;;;;13.47;100.00;98979.44;4983384;28;20027;-73
2021/09/27 05:51:26;;;;;;;192.93;21.65;;;;;;;13.33;100.00;98981.53;4983187;28;20063;-73
2021/09/27 05:54:16;;;;;;;43.85;18.42;;;;;;;13.47;100.00;98982.03;4977743;28;20038;-73
2021/09/27 05:56:52;;;;;;;63.70;19.60;;;;;;;13.30;100.00;98986.84;4982239;28;20140;-72
2021/09/27 05:59:20;;;;;;;83.10;19.88;;;;;;;13.34;100.00;98984.13;4989776;28;20023;-73
2021/09/27 06:01:58;;;;;;;82.60;19.92;;;;;;;13.45;100.00;98985.59;4986365;28;20057;-73
2021/09/27 06:04:44;;;;;;;35.80;20.20;;;;;;;13.57;100.00;98985.25;4981881;28;20018;-73
2021/09/27 06:07:31;;;;;;;120.85;21.98;;;;;;;13.51;100.00;98986.25;4986718;28;20073;-73
2021/09/27 06:10:01;;;;;;;128.15;20.05;;;;;;;13.55;100.00;98987.91;4978141;28;20057;-73
2021/09/27 06:12:53;;;;;;;35.22;18.13;;;;;;;13.69;100.00;98990.13;4985659;28;20040;-73
2021/09/27 06:15:25;;;;;;;128.23;19.77;;;;;;;13.85;100.00;98990.56;4990468;28;20019;-73
2021/09/27 06:18:04;;;;;;;25.77;17.67;;;;;;;14.11;100.00;98990.66;4983344;28;20509;-73
2021/09/27 06:20:56;;;;;;;119.13;17.42;;;;;;;13.93;100.00;98988.59;4986188;28;20022;-73
2021/09/27 06:23:24;;;;;;;125.72;16.63;;;;;;;13.84;100.00;98991.47;4975755;28;20049;-73
2021/09/27 06:26:11;;;;;;;27.90;15.65;;;;;;;14.05;100.00;98992.59;4984160;28;20542;-73
2021/09/27 06:29:03;;;;;;;24.98;13.90;;;;;;;14.04;100.00;99002.16;4975785;28;20126;-73
2021/09/27 06:31:38;;;;;;;32.95;13.70;;;;;;;14.28;100.00;98991.94;4977869;28;20018;-73
2021/09/27 06:34:18;;;;;;;75.13;15.15;;;;;;;14.13;100.00;98994.09;4986728;28;20033;-73
2021/09/27 06:36:45;;;;;;;16.10;13.50;;;;;;;14.74;100.00;98991.41;4983118;28;20037;-73
2021/09/27 06:39:18;;;;;;;20.38;13.57;;;;;;;14.96;100.00;98994.19;4988993;28;20046;-73
2021/09/27 06:41:46;;;;;;;19.60;13.07;;;;;;;14.96;100.00;98994.19;4980434;28;20510;-73
2021/09/27 06:44:12;;;;;;;24.05;13.13;;;;;;;15.05;100.00;98999.13;4989235;28;20447;-73
2021/09/27 06:46:38;;;;;;;15.77;11.73;;;;;;;15.59;97.78;98995.56;4981037;28;20018;-73
2021/09/27 06:49:04;;;;;;;26.80;13.10;;;;;;;15.12;98.96;99000.63;4991679;28;20046;-73
2021/09/27 06:51:29;;;;;;;34.65;12.90;;;;;;;15.21;99.12;98998.63;4980116;28;20062;-73
2021/09/27 06:53:54;;;;;;;14.23;12.43;;;;;;;15.78;97.61;98985.34;4981316;28;20023;-73
2021/09/27 06:56:21;;;;;;;25.90;13.38;;;;;;;15.78;96.45;98994.94;4982623;28;20029;-73
2021/09/27 06:58:46;;;;;;;23.98;14.40;;;;;;;15.43;98.40;98991.78;4985094;28;20045;-73
2021/09/27 07:01:11;;;;;;;18.02;12.55;;;;;;;15.22;100.00;98987.25;4982267;28;20105;-73
2021/09/27 07:03:36;;;;;;;26.77;14.77;;;;;;;15.15;100.00;98979.66;4982972;28;20096;-73
2021/09/27 07:06:02;;;;;;;28.17;14.02;;;;;;;15.06;100.00;98982.56;4987188;28;20026;-73
2021/09/27 07:08:28;;;;;;;25.90;13.98;;;;;;;15.35;99.65;98973.75;4980914;28;20503;-73
2021/09/27 07:10:54;;;;;;;20.13;14.35;;;;;;;15.50;99.07;98974.97;4983550;28;20105;-73
2021/09/27 07:13:20;;;;;;;20.30;13.75;;;;;;;15.44;99.40;98969.97;4983948;28;20045;-73
2021/09/27 07:15:46;;;;;;;20.77;15.02;;;;;;;15.40;98.72;98966.59;4988208;28;20042;-73
2021/09/27 07:18:12;;;;;;;21.33;13.27;;;;;;;15.62;98.09;98969.34;4984325;28;20026;-73
2021/09/27 07:20:37;;;;;;;19.38;13.15;;;;;;;16.14;96.02;98970.06;4984910;28;20030;-73
2021/09/27 07:23:03;;;;;;;13.20;11.73;;;;;;;16.49;93.44;98962.66;4975713;28;20027;-73
2021/09/27 07:25:30;;;;;;;15.30;12.15;;;;;;;16.53;92.70;98961.59;4986257;28;20114;-73
2021/09/27 07:27:55;;;;;;;12.68;10.90;;;;;;;16.78;90.87;98963.28;4980788;28;20033;-73
2021/09/27 07:30:21;;;;;;;14.25;11.48;;;;;;;16.48;93.66;98966.16;4981436;28;20022;-74
2021/09/27 07:32:47;;;;;;;14.57;11.85;;;;;;;16.98;90.77;98958.09;4979936;28;20022;-73
2021/09/27 07:35:15;;;;;;;12.85;11.55;;;;;;;16.69;91.03;98959.25;4982279;28;20490;-74
2021/09/27 07:37:41;;;;;;;14.25;12.45;;;;;;;16.20;93.20;98961.16;4983868;28;20080;-73
2021/09/27 07:40:09;;;;;;;14.82;12.75;;;;;;;16.14;95.60;98957.00;4983052;28;20022;-73
2021/09/27 07:42:36;;;;;;;16.08;11.90;;;;;;;15.96;96.69;98957.69;4988727;28;20037;-73
2021/09/27 07:45:03;;;;;;;16.80;14.43;;;;;;;16.03;96.39;98946.09;4978254;28;20022;-73
2021/09/27 07:47:28;;;;;;;13.95;12.55;;;;;;;16.19;96.84;98949.81;4983295;28;20423;-73
2021/09/27 07:49:54;;;;;;;17.25;13.45;;;;;;;16.35;96.06;98949.25;4976221;28;20042;-73
2021/09/27 07:52:19;;;;;;;18.02;13.15;;;;;;;16.44;95.23;98948.91;4984264;28;20143;-73
2021/09/27 07:54:44;;;;;;;16.10;12.20;;;;;;;16.47;93.88;98954.00;4974764;28;20023;-73
2021/09/27 07:57:10;;;;;;;14.75;12.68;;;;;;;16.34;94.96;98958.00;4982168;28;20366;-73
2021/09/27 07:59:36;;;;;;;15.98;12.45;;;;;;;17.01;92.77;98952.72;4990041;28;20022;-73
2021/09/27 08:02:01;;;;;;;14.45;11.57;;;;;;;18.21;86.31;98951.84;4983647;28;20026;-73
2021/09/27 08:04:26;;;;;;;11.93;10.75;;;;;;;20.94;72.52;98943.88;4984848;28;20117;-74
2021/09/27 08:06:52;;;;;;;9.82;8.82;;;;;;;21.78;67.23;98943.31;4983145;28;20029;-74
2021/09/27 08:09:17;;;;;;;11.45;8.45;;;;;;;23.40;61.15;98945.25;4983862;28;20518;-74
2021/09/27 08:11:43;;;;;;;9.70;7.78;;;;;;;25.63;53.73;98945.88;4984475;28;20022;-74
2021/09/27 08:14:12;;;;;;;8.35;7.32;;;;;;;24.80;55.00;98950.38;4983428;28;20093;-74
2021/09/27 08:16:37;;;;;;;10.85;6.70;;;;;;;26.73;51.20;98952.22;4982463;28;20038;-76
2021/09/27 08:19:05;;;;;;;6.75;6.15;;;;;;;29.18;44.71;98942.50;4986349;28;20038;-74
2021/09/27 08:21:30;;;;;;;10.95;5.60;;;;;;;30.82;40.33;98950.94;4977779;28;20102;-74
2021/09/27 08:23:55;;;;;;;6.05;4.75;;;;;;;31.86;37.94;98951.13;4982944;28;20105;-72
2021/09/27 08:26:21;;;;;;;5.40;4.90;;;;;;;32.65;35.21;98952.66;4976982;28;20078;-72
2021/09/27 08:28:47;;;;;;;6.03;5.15;;;;;;;33.85;33.68;98961.09;4983014;28;20084;-72
2021/09/27 08:31:17;;;;;;;4.80;4.40;;;;;;;33.03;34.20;98960.31;4979166;28;20034;-73
2021/09/27 08:33:43;;;;;;;5.95;4.30;;;;;;;34.01;32.47;98956.56;4984912;28;20599;-73
2021/09/27 08:36:11;;;;;;;5.55;4.47;;;;;;;33.62;32.32;98963.69;4981256;28;20054;-72
2021/09/27 08:38:38;;;;;;;5.53;5.03;;;;;;;33.29;32.21;98973.56;4987628;28;20035;-72
2021/09/27 08:41:06;;;;;;;5.38;4.20;;;;;;;33.29;32.30;98966.34;4980966;28;20034;-72
2021/09/27 08:43:58;;;;;;;5.25;4.13;;;;;;;34.25;31.61;98968.25;4984957;28;20493;-72
2021/09/27 08:46:33;;;;;;;5.78;4.30;;;;;;;33.63;31.45;98958.13;4984544;28;20025;-73
2021/09/27 08:49:15;;;;;;;4.85;3.95;;;;;;;34.29;30.41;98964.19;4980913;28;20101;-73
2021/09/27 08:51:42;;;;;;;5.82;5.20;;;;;;;34.18;31.31;98956.47;4989430;28;20042;-73
2021/09/27 08:54:16;;;;;;;6.50;4.32;;;;;;;35.67;28.79;98951.66;4983074;28;20101;-72
2021/09/27 08:56:49;;;;;;;4.20;3.80;;;;;;;34.83;30.36;98964.25;4988300;28;20027;-72
2021/09/27 08:59:25;;;;;;;5.38;3.92;;;;;;;34.61;30.84;98967.75;4992053;28;20029;-73
2021/09/27 09:02:04;;;;;;;5.15;4.03;;;;;;;34.73;30.00;98960.97;4986618;28;20037;-72
2021/09/27 09:04:41;;;;;;;3.67;3.10;;;;;;;35.14;29.06;98958.00;4986913;28;20463;-72
2021/09/27 09:07:13;;;;;;;4.20;3.13;;;;;;;32.41;32.60;98945.38;4985618;28;20030;-73
2021/09/27 09:09:46;;;;;;;13.85;3.95;;;;;;;33.46;31.07;98941.19;4986807;28;20161;-73
2021/09/27 09:12:47;;;;;;;3.58;3.28;;;;;;;34.36;29.88;98943.63;4981732;28;20037;-73
2021/09/27 09:15:26;;;;;;;28.05;11.88;;;;;;;33.68;31.41;98942.31;4979358;28;20039;-73
2021/09/27 09:18:15;;;;;;;3.65;3.35;;;;;;;35.47;28.20;98945.94;4982759;28;20435;-73
2021/09/27 09:20:53;;;;;;;3.10;2.50;;;;;;;35.12;27.70;98944.72;4979633;28;20078;-72
2021/09/27 09:23:28;;;;;;;7.65;4.10;;;;;;;33.37;29.51;98944.88;4991249;28;20034;-73
2021/09/27 09:25:53;;;;;;;4.07;3.20;;;;;;;32.04;31.40;98947.53;4978496;28;20102;-72
2021/09/27 09:28:20;;;;;;;5.55;3.20;;;;;;;31.71;32.43;98947.31;4983122;28;20101;-72
2021/09/27 09:31:04;;;;;;;3.72;3.05;;;;;;;33.42;29.40;98938.97;4981287;28;20019;-73
2021/09/27 09:33:45;;;;;;;4.60;3.45;;;;;;;32.09;32.15;98939.84;4986004;28;20468;-73
2021/09/27 09:36:27;;;;;;;3.85;2.85;;;;;;;31.72;32.41;98939.16;4985836;28;20062;-73
2021/09/27 09:38:53;;;;;;;2.80;2.60;;;;;;;29.83;35.29;98945.34;4983477;28;20034;-73
2021/09/27 09:41:20;;;;;;;4.65;3.15;;;;;;;28.49;39.15;98955.06;4981128;28;20023;-73
2021/09/27 09:43:50;;;;;;;4.75;3.40;;;;;;;27.89;41.48;98942.47;4979422;28;20030;-72
2021/09/27 09:46:36;;;;;;;4.35;2.83;;;;;;;30.58;34.97;98942.63;4987482;28;20019;-73
2021/09/27 09:49:11;;;;;;;4.97;2.60;;;;;;;33.11;31.03;98936.13;4979262;28;20031;-72
2021/09/27 09:51:41;;;;;;;2.72;2.53;;;;;;;33.53;29.71;98924.38;4986486;28;20098;-72
2021/09/27 09:54:16;;;;;;;7.13;2.67;;;;;;;33.74;29.23;98920.13;4984678;28;20117;-73
2021/09/27 09:56:48;;;;;;;4.30;2.67;;;;;;;32.56;31.77;98925.97;4986078;28;20041;-72
2021/09/27 09:59:45;;;;;;;6.80;3.08;;;;;;;33.47;29.78;98918.69;4990589;28;20042;-73
2021/09/27 10:02:20;;;;;;;4.05;3.00;;;;;;;33.95;29.26;98916.91;4975399;28;20039;-72
2021/09/27 10:05:08;;;;;;;3.90;2.92;;;;;;;31.56;32.85;98916.75;4985472;28;20022;-72
2021/09/27 10:07:51;;;;;;;3.47;2.55;;;;;;;34.51;27.87;98917.66;4989012;28;20015;-72
2021/09/27 10:10:29;;;;;;;3.13;2.75;;;;;;;33.88;29.27;98917.72;4984599;28;20076;-72
2021/09/27 10:12:54;;;;;;;3.08;2.75;;;;;;;33.35;29.58;98917.31;4981536;28;20049;-72
2021/09/27 10:15:25;;;;;;;3.10;2.70;;;;;;;33.29;30.28;98912.63;4982093;28;20047;-72
2021/09/27 10:17:59;;;;;;;7.95;2.55;;;;;;;33.24;31.24;98909.59;4982817;28;20046;-72
2021/09/27 10:20:32;;;;;;;4.25;2.28;;;;;;;33.30;29.10;98906.22;4977188;28;20494;-72
2021/09/27 10:23:01;;;;;;;4.20;2.90;;;;;;;29.43;35.80;98918.84;4983533;28;20034;-72
2021/09/27 10:25:26;;;;;;;3.97;2.53;;;;;;;28.74;37.40;98911.88;4985355;28;20068;-72
2021/09/27 10:27:52;;;;;;;3.05;2.63;;;;;;;27.58;40.11;98916.78;4986085;28;20039;-72
2021/09/27 10:30:23;;;;;;;2.53;2.33;;;;;;;29.37;36.39;98908.75;5010467;23;20041;-74
2021/09/27 10:32:55;;;;;;;2.85;2.53;;;;;;;32.11;32.17;98905.69;5006025;28;20026;-74
2021/09/27 10:35:29;;;;;;;4.03;3.40;;;;;;;33.38;29.57;98900.03;4997646;28;20454;-75
2021/09/27 10:38:03;;;;;;;3.13;2.80;;;;;;;33.53;30.65;98908.25;5000370;28;20029;-74
2021/09/27 10:40:31;;;;;;;4.22;2.47;;;;;;;35.72;27.15;98902.56;5000049;28;20018;-75
2021/09/27 10:42:56;;;;;;;5.85;2.33;;;;;;;36.41;24.34;98907.63;4995034;28;20356;-74
2021/09/27 10:45:25;;;;;;;4.60;1.80;;;;;;;34.71;25.83;98906.44;4993411;28;20149;-75
2021/09/27 10:47:56;;;;;;;1.75;1.60;;;;;;;33.55;27.86;98907.06;4994389;28;20026;-74
2021/09/27 10:50:29;;;;;;;3.15;1.83;;;;;;;30.73;32.36;98906.34;4993220;28;20026;-74
2021/09/27 10:53:03;;;;;;;15.38;12.52;;;;;;;34.82;26.55;98900.66;4993613;28;20062;-74
2021/09/27 10:55:45;;;;;;;3.58;2.08;;;;;;;32.04;29.92;98900.13;4993244;28;20070;-75
2021/09/27 10:58:23;;;;;;;2.88;2.00;;;;;;;33.17;29.21;98897.84;4992982;28;20383;-74
2021/09/27 11:00:54;;;;;;;5.30;3.45;;;;;;;32.35;29.32;98902.22;4998628;28;20387;-74
2021/09/27 11:03:43;;;;;;;6.38;3.28;;;;;;;33.14;28.29;98899.03;4993241;28;20076;-75
2021/09/27 11:06:29;;;;;;;3.30;1.85;;;;;;;33.22;28.83;98900.88;4995774;28;20376;-74
2021/09/27 11:09:02;;;;;;;2.60;1.88;;;;;;;32.35;29.63;98903.09;4996760;28;20088;-74
2021/09/27 11:11:27;;;;;;;2.83;1.90;;;;;;;34.01;28.32;98894.69;4993605;28;20069;-74
2021/09/27 11:13:53;;;;;;;2.07;1.87;;;;;;;34.25;27.11;98898.28;4996217;28;20026;-74
2021/09/27 11:16:23;;;;;;;4.32;1.70;;;;;;;33.29;28.53;98896.50;4992993;28;20027;-74
2021/09/27 11:19:05;;;;;;;3.60;1.98;;;;;;;34.28;26.79;98892.53;4995400;28;20034;-74
2021/09/27 11:21:36;;;;;;;2.90;2.03;;;;;;;31.42;31.73;98894.88;4992803;28;20089;-74
2021/09/27 11:24:22;;;;;;;3.40;2.05;;;;;;;33.69;27.86;98892.06;4992820;28;20026;-74
2021/09/27 11:27:00;;;;;;;1.40;1.30;;;;;;;32.60;28.14;98887.06;4992339;28;20030;-74
2021/09/27 11:29:28;;;;;;;2.72;1.83;;;;;;;31.53;29.05;98884.94;4996897;28;20036;-74
2021/09/27 11:32:18;;;;;;;2.33;1.58;;;;;;;32.03;28.96;98884.19;4992628;28;20028;-74
2021/09/27 11:34:57;;;;;;;2.55;1.70;;;;;;;30.20;31.64;98885.72;4992823;28;20033;-75
2021/09/27 11:37:25;;;;;;;2.55;1.63;;;;;;;30.60;30.35;98881.78;4993968;28;20017;-74
2021/09/27 11:40:06;;;;;;;1.57;1.47;;;;;;;31.88;28.08;98863.38;4992775;28;20116;-75
2021/09/27 11:43:04;;;;;;;1.88;1.70;;;;;;;33.15;26.73;98862.28;4993104;28;20029;-74
2021/09/27 11:45:30;;;;;;;2.42;1.33;;;;;;;33.69;26.97;98865.19;4992616;28;20018;-75
2021/09/27 11:48:10;;;;;;;2.17;1.48;;;;;;;33.54;27.95;98864.25;4991201;28;20084;-75
2021/09/27 11:50:47;;;;;;;1.73;1.63;;;;;;;35.01;26.30;98857.09;4992538;28;20475;-74
2021/09/27 11:53:20;;;;;;;1.77;1.52;;;;;;;33.18;27.70;98851.19;4992179;28;20061;-75
2021/09/27 11:56:31;;;;;;;2.17;1.70;;;;;;;31.35;31.79;98864.41;4995347;28;20501;-75
2021/09/27 11:59:25;;;;;;;2.53;1.42;;;;;;;31.62;31.02;98851.81;4991958;28;20421;-74
2021/09/27 12:02:19;;;;;;;5.28;2.30;;;;;;;30.76;31.60;98844.53;4999299;28;20073;-74
2021/09/27 12:04:56;;;;;;;3.20;2.03;;;;;;;28.95;34.72;98845.03;4994279;28;20014;-74
2021/09/27 12:07:44;;;;;;;2.83;1.92;;;;;;;26.21;39.10;98850.16;4992475;28;20712;-75
2021/09/27 12:10:29;;;;;;;2.67;1.70;;;;;;;26.99;37.71;98849.03;4994302;28;20014;-74
2021/09/27 12:13:00;;;;;;;2.38;1.92;;;;;;;25.86;39.02;98840.53;5000691;28;20058;-74
2021/09/27 12:15:30;;;;;;;1.70;1.60;;;;;;;25.50;40.75;98848.75;4993416;28;20030;-74
2021/09/27 12:17:56;;;;;;;4.03;1.52;;;;;;;25.08;41.58;98848.44;4992306;28;20053;-74
2021/09/27 12:20:26;;;;;;;1.73;1.63;;;;;;;24.85;42.62;98858.97;4993287;28;20018;-74
2021/09/27 12:22:57;;;;;;;2.33;2.13;;;;;;;25.23;42.78;98857.88;4990832;28;20484;-73
2021/09/27 12:25:32;;;;;;;3.17;1.95;;;;;;;25.20;42.04;98851.97;4992369;28;20061;-74
2021/09/27 12:28:05;;;;;;;3.45;1.75;;;;;;;25.34;41.70;98851.75;4993918;28;20023;-74
2021/09/27 12:30:33;;;;;;;1.67;1.45;;;;;;;25.14;42.18;98853.25;4997307;28;20101;-73
2021/09/27 12:33:12;;;;;;;4.63;1.70;;;;;;;25.06;42.30;98853.00;4993608;28;20033;-72
2021/09/27 12:35:45;;;;;;;2.00;1.80;;;;;;;25.28;40.80;98847.75;4995308;28;20502;-71
2021/09/27 12:38:11;;;;;;;2.72;1.50;;;;;;;25.15;40.66;98849.69;4992572;28;20030;-74
2021/09/27 12:40:50;;;;;;;1.70;1.60;;;;;;;25.58;41.08;98851.66;4991902;28;20097;-74
2021/09/27 12:43:21;;;;;;;20.30;14.73;;;;;;;25.74;41.58;98856.59;4991907;28;20467;-74
2021/09/27 12:45:54;;;;;;;3.25;1.80;;;;;;;24.90;41.27;98855.09;4991714;28;20022;-74
2021/09/27 12:48:25;;;;;;;4.05;2.08;;;;;;;24.60;42.76;98851.16;5001381;28;20026;-73
2021/09/27 12:50:59;;;;;;;3.60;1.95;;;;;;;24.76;43.74;98851.72;4998176;28;20030;-74
2021/09/27 12:53:33;;;;;;;1.73;1.58;;;;;;;24.87;42.83;98851.72;4997150;28;20537;-74
2021/09/27 12:55:59;;;;;;;3.40;1.67;;;;;;;24.73;43.30;98843.97;4994036;28;20501;-74
2021/09/27 12:59:05;;;;;;;1.75;1.65;;;;;;;24.78;42.41;98841.81;4992594;28;20101;-74
2021/09/27 13:01:34;;;;;;;2.20;2.00;;;;;;;24.80;43.84;98839.03;4959010;28;20430;-74
2021/09/27 13:04:09;;;;;;;2.10;1.88;;;;;;;24.55;44.42;98840.03;4959258;28;20039;-74
2021/09/27 13:06:56;;;;;;;2.60;1.92;;;;;;;24.73;44.47;98843.97;4976507;28;20058;-74
2021/09/27 13:09:23;;;;;;;4.20;1.60;;;;;;;24.88;42.78;98842.81;4986365;28;20034;-74
2021/09/27 13:12:09;;;;;;;2.38;2.17;;;;;;;25.13;43.30;98847.13;4990422;28;20476;-74
2021/09/27 13:14:42;;;;;;;2.30;2.10;;;;;;;25.03;43.52;98840.81;4991816;28;20041;-74
2021/09/27 13:17:26;;;;;;;4.78;1.70;;;;;;;25.20;43.02;98852.81;4990360;28;20034;-74
2021/09/27 13:19:55;;;;;;;5.38;2.40;;;;;;;24.76;43.62;98859.66;4992367;28;20050;-74
2021/09/27 13:22:23;;;;;;;2.50;2.17;;;;;;;24.33;44.88;98857.50;4993150;28;20317;-74
2021/09/27 13:25:07;;;;;;;2.22;1.80;;;;;;;23.94;44.05;98861.25;4995064;28;20407;-76
2021/09/27 13:27:38;;;;;;;2.83;1.85;;;;;;;23.91;44.53;98855.31;4994786;28;20615;-76
2021/09/27 13:30:27;;;;;;;2.40;1.90;;;;;;;23.99;44.55;98852.97;4993688;28;20045;-76
2021/09/27 13:32:57;;;;;;;2.83;1.67;;;;;;;24.07;44.35;98855.88;5007992;28;20092;-76
2021/09/27 13:35:30;;;;;;;4.60;1.67;;;;;;;23.83;44.10;98861.97;4993584;28;20014;-76
2021/09/27 13:38:03;;;;;;;4.80;1.70;;;;;;;23.63;45.44;98857.22;4994579;28;20022;-76
2021/09/27 13:40:34;;;;;;;2.90;1.65;;;;;;;23.74;45.60;98865.31;4994656;28;20018;-76
2021/09/27 13:43:15;;;;;;;3.95;1.90;;;;;;;23.47;45.13;98861.91;4994356;28;20116;-76
2021/09/27 13:45:42;;;;;;;2.10;1.90;;;;;;;23.20;46.35;98865.47;4994573;28;20018;-76
2021/09/27 13:48:09;;;;;;;7.07;2.10;;;;;;;23.03;47.03;98863.16;4999388;28;20057;-76
2021/09/27 13:50:35;;;;;;;4.25;1.80;;;;;;;22.82;47.49;98860.97;4996357;28;20050;-76
2021/09/27 13:53:17;;;;;;;4.97;2.38;;;;;;;22.91;47.97;98863.97;4997249;28;20476;-76
2021/09/27 13:55:43;;;;;;;2.28;1.67;;;;;;;22.97;48.30;98860.94;4994560;28;20062;-76
2021/09/27 13:58:09;;;;;;;8.77;4.45;;;;;;;23.07;47.38;98859.34;4994186;28;20026;-76
2021/09/27 14:00:35;;;;;;;7.18;5.70;;;;;;;23.15;48.16;98857.03;4997808;28;20479;-76
2021/09/27 14:03:03;;;;;;;7.32;4.97;;;;;;;23.45;47.20;98864.66;4995032;28;20461;-76
2021/09/27 14:05:28;;;;;;;3.58;2.90;;;;;;;23.56;47.54;98861.25;4994390;28;20380;-76
2021/09/27 14:07:53;;;;;;;2.75;2.22;;;;;;;23.36;46.99;98860.00;4994244;28;20026;-76
2021/09/27 14:10:19;;;;;;;3.70;1.98;;;;;;;23.17;47.43;98863.06;5003879;28;20030;-76
2021/09/27 14:12:44;;;;;;;1.95;1.73;;;;;;;23.01;47.96;98865.88;4995303;28;20030;-75
2021/09/27 14:15:10;;;;;;;2.38;1.67;;;;;;;22.84;48.34;98869.63;4994222;28;20026;-75
2021/09/27 14:17:36;;;;;;;1.83;1.73;;;;;;;22.92;48.83;98860.38;4994203;28;20022;-77
2021/09/27 14:20:06;;;;;;;3.88;1.88;;;;;;;22.85;49.00;98859.91;5006222;28;20101;-73
2021/09/27 14:22:33;;;;;;;2.25;2.05;;;;;;;22.84;49.93;98853.78;4996183;28;20037;-73
2021/09/27 14:24:58;;;;;;;4.55;3.72;;;;;;;23.11;48.50;98860.81;4994534;28;20045;-73
2021/09/27 14:27:24;;;;;;;2.42;2.22;;;;;;;23.27;49.29;98861.47;4996031;28;20025;-73
2021/09/27 14:29:50;;;;;;;4.00;1.58;;;;;;;23.15;48.28;98857.03;4997196;28;20426;-73
2021/09/27 14:32:15;;;;;;;2.63;1.88;;;;;;;23.31;48.43;98860.31;4999954;28;20022;-73
2021/09/27 14:34:40;;;;;;;1.95;1.70;;;;;;;23.39;47.72;98858.94;4996804;28;20117;-73
2021/09/27 14:37:06;;;;;;;1.55;1.45;;;;;;;23.40;48.54;98861.47;4993762;28;20075;-73
2021/09/27 14:39:31;;;;;;;2.85;1.80;;;;;;;23.54;49.19;98857.88;4993614;28;20026;-72
2021/09/27 14:41:56;;;;;;;4.15;1.95;;;;;;;23.50;48.64;98851.13;4993561;28;20463;-72
2021/09/27 14:44:22;;;;;;;1.70;1.60;;;;;;;23.59;48.77;98853.09;4995536;28;20655;-72
2021/09/27 14:46:47;;;;;;;1.73;1.42;;;;;;;23.39;49.29;98853.66;4999761;28;20022;-73
2021/09/27 14:49:13;;;;;;;2.10;1.90;;;;;;;23.27;49.30;98860.63;5001013;28;20463;-73
2021/09/27 14:51:39;;;;;;;3.63;2.17;;;;;;;23.32;50.64;98859.38;5001599;28;20026;-73
2021/09/27 14:54:05;;;;;;;2.58;2.38;;;;;;;23.37;50.86;98868.78;4997130;28;20097;-73
2021/09/27 14:56:30;;;;;;;10.68;8.23;;;;;;;23.33;51.50;98866.34;4993069;28;20471;-73
2021/09/27 14:58:57;;;;;;;9.48;2.40;;;;;;;23.22;51.28;98865.41;5003313;28;20044;-73
2021/09/27 15:01:22;;;;;;;6.40;2.05;;;;;;;22.60;52.13;98876.56;5004280;28;20497;-73
2021/09/27 15:03:51;;;;;;;6.78;2.47;;;;;;;23.10;51.19;98869.69;4993168;28;20158;-73
2021/09/27 15:06:23;;;;;;;3.10;2.35;;;;;;;22.41;52.76;98870.78;4993064;28;20022;-73
2021/09/27 15:08:49;;;;;;;6.38;2.40;;;;;;;22.64;52.82;98861.34;4994093;28;20146;-73
2021/09/27 15:11:16;;;;;;;7.85;2.28;;;;;;;22.91;51.54;98871.91;5002646;28;20048;-73
2021/09/27 15:13:42;;;;;;;6.55;2.60;;;;;;;22.52;53.47;98873.56;4992916;28;20597;-73
2021/09/27 15:16:08;;;;;;;3.20;2.70;;;;;;;22.10;54.36;98877.13;4992807;28;20057;-73
2021/09/27 15:18:34;;;;;;;6.47;3.80;;;;;;;22.12;55.27;98876.13;4998336;28;20061;-73
2021/09/27 15:21:03;;;;;;;7.72;4.25;;;;;;;21.93;55.75;98883.47;4999268;28;20030;-73
2021/09/27 15:23:39;;;;;;;15.20;5.90;;;;;;;22.18;55.68;98878.38;4992783;28;20030;-73
2021/09/27 15:26:16;;;;;;;5.30;3.78;;;;;;;21.98;56.10;98902.50;4994856;28;20026;-76
2021/09/27 15:28:43;;;;;;;4.88;3.53;;;;;;;21.70;57.66;98884.91;4992713;28;20030;-76
2021/09/27 15:31:12;;;;;;;5.57;3.55;;;;;;;21.72;57.56;98889.16;4997664;28;20030;-76
2021/09/27 15:33:39;;;;;;;3.97;2.83;;;;;;;21.79;57.96;98901.00;4994921;28;20025;-84
2021/09/27 15:36:09;;;;;;;5.07;2.88;;;;;;;21.44;58.87;98899.69;5000275;28;20026;-84
2021/09/27 15:38:37;;;;;;;5.03;3.05;;;;;;;21.67;58.76;98901.78;4995149;28;20034;-84
2021/09/27 15:41:05;;;;;;;4.65;2.83;;;;;;;21.55;58.27;98903.38;4999553;28;20028;-84
2021/09/27 15:43:31;;;;;;;11.02;3.25;;;;;;;21.58;58.93;98907.63;4996305;28;20463;-85
2021/09/27 15:45:58;;;;;;;7.55;3.58;;;;;;;21.65;58.88;98898.38;4995243;28;20037;-84
2021/09/27 15:48:24;;;;;;;6.63;2.90;;;;;;;21.47;59.40;98894.25;4995514;28;20521;-83
2021/09/27 15:50:49;;;;;;;3.60;2.85;;;;;;;21.41;60.37;98895.44;5000109;28;20029;-81
2021/09/27 15:53:16;;;;;;;6.32;2.83;;;;;;;21.21;61.07;98893.97;4993533;28;20538;-74
2021/09/27 15:55:42;;;;;;;3.25;2.92;;;;;;;21.35;60.09;98897.59;4992294;28;20026;-71
2021/09/27 15:58:09;;;;;;;4.68;2.70;;;;;;;21.34;60.40;98895.91;4999563;28;20026;-82
2021/09/27 16:00:40;;;;;;;5.03;2.40;;;;;;;21.38;60.30;98884.25;5003995;28;20385;-71
2021/09/27 16:03:08;;;;;;;3.65;2.50;;;;;;;21.29;61.91;98886.47;4991672;28;20370;-74
2021/09/27 16:05:33;;;;;;;3.15;2.85;;;;;;;21.35;62.19;98884.44;4995775;28;20463;-79
2021/09/27 16:07:59;;;;;;;8.00;2.78;;;;;;;21.29;61.91;98886.47;4992414;28;20046;-71
2021/09/27 16:10:25;;;;;;;4.53;2.75;;;;;;;21.23;62.82;98889.47;5002260;28;20026;-79
2021/09/27 16:12:51;;;;;;;3.78;2.78;;;;;;;21.17;63.74;98891.59;4991719;28;20026;-76
2021/09/27 16:15:16;;;;;;;6.57;2.97;;;;;;;20.71;65.88;98884.63;4998248;28;20047;-77